Duluth, Minnesota
Current Conditions -  °F | °C
As of 11:55 PM on Saturday 22 Nov 2014 (Local Time) from KDLH Reporting Station
Moderate Fog Moderate Fog  
Wind Chill: -4°   Ceiling: 200
Heat Index:   Visibility: 0.25mi
Dew Point:   Wind: 10mph
Humidity: 96%   Direction: 130°SE
Pressure: 29.52"   Gusts: NA
Location:  46.79°N, 92.09°W
Report Text: KDLH 230555Z 13009KT 1/4SM R09/1000FT FG VV002 01/00 A2952 RMK AO2 SLP012 I1001 I6001 T00060000 10011 20006 400171028 56016
Loading
Personal Weather Stations






























Interactive Weather Map New forecast layout! Learn more

10-Day Weather Forecast

Advertisements
Track Severe Weather on mobile